»·PEaware :: N167AJ KLVK-KTVL

N167AJ :: KLVK-KTVL

FLIGHT INFORMATION

Flight Status: Arrived
Operator: Privately registered:
United States
More flights under this callsign
Pilot: Chase C. (10526)
Aircraft: Unknown
(E50P)
More flights by this aircraft type
Origin: KLVK Livermore Mun
United States
Destination: KTVL Lake Tahoe
United States
More flights between these airports :: More routes between these airports
Route: LVK3 HAIRE V28 SPOOK
File this flight plan on PilotEdge
Remarks:
Altitude:
(Current/Filed)
19,000ft
Speed:
(Current/Filed)
400kts
Departed: 12-Jan-18 09:42 PM
Arrived: 12-Jan-18 10:19 PM
Distance/Time
Traveled:
112nm/0:37
Distance/Time
To Go:
Arrived

Flight Plot

Page will automatically refresh every two minutes.

Flight plan parsing failed; only flown route is shown


Map Options




Map Legend


Flown Route
Filed Route
Departure Airport
Arrival Airport
Navaid (VOR, NDB)
Fix

Horizontal Profiles

Position Reports

Time Latitude Longitude Heading Altitude Ground
Speed
12-Jan-18 21:34 37.691339 -121.812389 90 406ft 0kts
12-Jan-18 21:35 37.691339 -121.812389 90 406ft 0kts
12-Jan-18 21:36 37.691339 -121.812389 90 406ft 0kts
12-Jan-18 21:37 37.691339 -121.812389 90 406ft 0kts
12-Jan-18 21:38 37.691339 -121.812389 90 406ft 0kts
12-Jan-18 21:39 37.691339 -121.812389 90 406ft 0kts
12-Jan-18 21:40 37.691339 -121.812389 90 406ft 0kts
12-Jan-18 21:41 37.691339 -121.812389 90 406ft 0kts
12-Jan-18 21:42 37.691450 -121.812297 356 406ft 3kts
12-Jan-18 21:43 37.691956 -121.815753 242 406ft 17kts
12-Jan-18 21:44 37.691825 -121.819379 272 406ft 10kts
12-Jan-18 21:45 37.691859 -121.823683 269 406ft 21kts
12-Jan-18 21:46 37.692221 -121.828896 314 406ft 12kts
12-Jan-18 21:47 37.693927 -121.828928 89 406ft 0kts
12-Jan-18 21:48 37.694740 -121.796610 68 2040ft 174kts
12-Jan-18 21:49 37.733403 -121.784180 6 3951ft 262kts
12-Jan-18 21:50 37.791368 -121.758231 22 7208ft 287kts
12-Jan-18 21:51 37.831076 -121.693562 62 10626ft 306kts
12-Jan-18 21:52 37.855423 -121.625485 63 13548ft 310kts
12-Jan-18 21:53 37.876428 -121.566441 63 16021ft 324kts
12-Jan-18 21:54 37.905185 -121.485372 63 19128ft 345kts
12-Jan-18 21:55 37.932970 -121.406780 64 19349ft 394kts
12-Jan-18 21:56 37.960404 -121.328990 64 19352ft 440kts
12-Jan-18 21:57 37.990585 -121.242941 65 19346ft 466kts
12-Jan-18 21:58 38.023718 -121.148330 65 19345ft 466kts
12-Jan-18 21:59 38.057391 -121.052048 65 19344ft 464kts
12-Jan-18 22:00 38.098421 -120.965228 42 19306ft 457kts
12-Jan-18 22:01 38.158723 -120.892657 45 19236ft 456kts
12-Jan-18 22:02 38.222130 -120.809429 45 19223ft 454kts
12-Jan-18 22:03 38.286762 -120.724057 45 19247ft 453kts
12-Jan-18 22:04 38.353445 -120.635888 45 19190ft 453kts
12-Jan-18 22:05 38.417973 -120.578752 15 19188ft 451kts
12-Jan-18 22:06 38.495413 -120.540904 24 19291ft 449kts
12-Jan-18 22:07 38.561673 -120.500401 25 19334ft 449kts
12-Jan-18 22:08 38.636962 -120.451612 26 19348ft 450kts
12-Jan-18 22:09 38.745601 -120.374991 30 19391ft 450kts
12-Jan-18 22:10 38.824985 -120.308786 33 19419ft 450kts
12-Jan-18 22:11 38.905790 -120.267512 22 19142ft 419kts
12-Jan-18 22:12 38.973687 -120.229722 23 18076ft 353kts
12-Jan-18 22:13 39.038584 -120.193083 22 16394ft 335kts
12-Jan-18 22:14 39.106967 -120.154517 22 14428ft 329kts
12-Jan-18 22:15 39.170724 -120.116995 35 12504ft 296kts
12-Jan-18 22:16 39.185490 -120.040644 99 12021ft 258kts
12-Jan-18 22:17 39.153930 -119.980060 163 11628ft 278kts
12-Jan-18 22:18 39.093926 -119.976260 178 10341ft 212kts
12-Jan-18 22:19 39.050795 -119.975325 178 9061ft 178kts
12-Jan-18 22:20 39.012127 -119.974474 178 8302ft 152kts
12-Jan-18 22:21 38.981836 -119.975010 177 8179ft 136kts
12-Jan-18 22:22 38.953649 -119.978057 191 7819ft 130kts
12-Jan-18 22:23 38.927700 -119.985494 195 7152ft 115kts
12-Jan-18 22:24 38.905257 -119.991989 192 6299ft 93kts
12-Jan-18 22:25 38.892565 -119.996368 224 6271ft 25kts
12-Jan-18 22:26 38.893384 -119.997257 101 6271ft 0kts
12-Jan-18 22:27 38.893384 -119.997257 101 6271ft 0kts
12-Jan-18 22:28 38.893384 -119.997257 101 6271ft 0kts

Navigation Log

Ident Type
Flight plan parsing failed, navigation log unavailable